sensor_id;sensor_type;location;lat;lon;timestamp;pressure;altitude;pressure_sealevel;temperature;humidity
29359;BME280;16347;53.232;6.556;2024-03-02T00:01:44;100021.59;;;11.12;54.05
29359;BME280;16347;53.232;6.556;2024-03-02T00:04:12;100016.16;;;11.12;53.88
29359;BME280;16347;53.232;6.556;2024-03-02T00:06:40;100015.50;;;11.10;53.29
29359;BME280;16347;53.232;6.556;2024-03-02T00:09:09;100015.19;;;11.05;53.43
29359;BME280;16347;53.232;6.556;2024-03-02T00:11:39;100009.59;;;11.07;53.41
29359;BME280;16347;53.232;6.556;2024-03-02T00:14:08;100011.34;;;11.00;53.47
29359;BME280;16347;53.232;6.556;2024-03-02T00:16:36;100009.09;;;11.03;53.63
29359;BME280;16347;53.232;6.556;2024-03-02T00:19:05;100011.72;;;10.97;53.63
29359;BME280;16347;53.232;6.556;2024-03-02T00:21:34;100020.53;;;10.99;53.59
29359;BME280;16347;53.232;6.556;2024-03-02T00:24:07;100012.38;;;10.99;53.82
29359;BME280;16347;53.232;6.556;2024-03-02T00:26:45;100008.78;;;10.98;53.48
29359;BME280;16347;53.232;6.556;2024-03-02T00:29:15;100006.63;;;10.94;54.03
29359;BME280;16347;53.232;6.556;2024-03-02T00:31:46;100004.94;;;10.93;54.29
29359;BME280;16347;53.232;6.556;2024-03-02T00:34:15;100003.59;;;10.89;53.72
29359;BME280;16347;53.232;6.556;2024-03-02T00:36:44;100002.25;;;10.85;54.40
29359;BME280;16347;53.232;6.556;2024-03-02T00:39:12;100004.22;;;10.76;54.18
29359;BME280;16347;53.232;6.556;2024-03-02T00:41:43;99995.88;;;10.77;54.44
29359;BME280;16347;53.232;6.556;2024-03-02T00:44:12;99996.41;;;10.73;54.17
29359;BME280;16347;53.232;6.556;2024-03-02T00:46:42;100008.31;;;10.72;54.79
29359;BME280;16347;53.232;6.556;2024-03-02T00:49:14;100004.25;;;10.68;54.46
29359;BME280;16347;53.232;6.556;2024-03-02T00:51:46;100010.38;;;10.70;54.48
29359;BME280;16347;53.232;6.556;2024-03-02T00:54:19;100005.28;;;10.67;54.89
29359;BME280;16347;53.232;6.556;2024-03-02T00:56:48;100005.28;;;10.67;54.98
29359;BME280;16347;53.232;6.556;2024-03-02T00:59:16;99998.03;;;10.59;55.11
29359;BME280;16347;53.232;6.556;2024-03-02T01:01:45;100000.22;;;10.64;54.93
29359;BME280;16347;53.232;6.556;2024-03-02T01:04:13;99996.94;;;10.68;55.23
29359;BME280;16347;53.232;6.556;2024-03-02T01:06:42;100000.16;;;10.72;54.97
29359;BME280;16347;53.232;6.556;2024-03-02T01:09:10;99997.56;;;10.78;55.08
29359;BME280;16347;53.232;6.556;2024-03-02T01:11:39;99988.00;;;10.82;55.18
29359;BME280;16347;53.232;6.556;2024-03-02T01:14:07;99982.16;;;10.71;55.29
29359;BME280;16347;53.232;6.556;2024-03-02T01:16:35;99986.91;;;10.69;55.32
29359;BME280;16347;53.232;6.556;2024-03-02T01:19:04;99977.75;;;10.70;54.69
29359;BME280;16347;53.232;6.556;2024-03-02T01:21:32;99968.78;;;10.61;55.26
29359;BME280;16347;53.232;6.556;2024-03-02T01:24:00;99961.78;;;10.67;55.26
29359;BME280;16347;53.232;6.556;2024-03-02T01:26:28;99966.78;;;10.55;55.65
29359;BME280;16347;53.232;6.556;2024-03-02T01:28:57;99961.34;;;10.55;55.17
29359;BME280;16347;53.232;6.556;2024-03-02T01:31:25;99939.81;;;10.54;55.53
29359;BME280;16347;53.232;6.556;2024-03-02T01:33:53;99957.28;;;10.51;56.06
29359;BME280;16347;53.232;6.556;2024-03-02T01:36:22;99955.75;;;10.57;56.25
29359;BME280;16347;53.232;6.556;2024-03-02T01:38:50;99956.13;;;10.54;55.62
29359;BME280;16347;53.232;6.556;2024-03-02T01:41:18;99963.09;;;10.48;55.83
29359;BME280;16347;53.232;6.556;2024-03-02T01:43:46;99955.13;;;10.47;56.17
29359;BME280;16347;53.232;6.556;2024-03-02T01:46:14;99952.22;;;10.48;56.21
29359;BME280;16347;53.232;6.556;2024-03-02T01:48:41;99955.50;;;10.44;56.25
29359;BME280;16347;53.232;6.556;2024-03-02T01:51:10;99955.66;;;10.42;56.13
29359;BME280;16347;53.232;6.556;2024-03-02T01:53:39;99952.47;;;10.39;56.63
29359;BME280;16347;53.232;6.556;2024-03-02T01:56:07;99953.84;;;10.35;56.80
29359;BME280;16347;53.232;6.556;2024-03-02T01:58:34;99955.88;;;10.41;56.65
29359;BME280;16347;53.232;6.556;2024-03-02T02:01:03;99950.09;;;10.36;56.90
29359;BME280;16347;53.232;6.556;2024-03-02T02:03:31;99950.88;;;10.44;56.62
29359;BME280;16347;53.232;6.556;2024-03-02T02:05:58;99954.41;;;10.53;56.60
29359;BME280;16347;53.232;6.556;2024-03-02T02:08:26;99942.53;;;10.54;56.96
29359;BME280;16347;53.232;6.556;2024-03-02T02:10:56;99945.47;;;10.67;56.56
29359;BME280;16347;53.232;6.556;2024-03-02T02:13:24;99946.06;;;10.54;56.03
29359;BME280;16347;53.232;6.556;2024-03-02T02:15:51;99932.66;;;10.53;56.33
29359;BME280;16347;53.232;6.556;2024-03-02T02:18:20;99937.25;;;10.52;56.27
29359;BME280;16347;53.232;6.556;2024-03-02T02:20:48;99937.44;;;10.51;56.47
29359;BME280;16347;53.232;6.556;2024-03-02T02:23:17;99940.22;;;10.43;57.00
29359;BME280;16347;53.232;6.556;2024-03-02T02:25:45;99928.63;;;10.49;56.47
29359;BME280;16347;53.232;6.556;2024-03-02T02:28:13;99922.41;;;10.40;56.53
29359;BME280;16347;53.232;6.556;2024-03-02T02:30:40;99940.56;;;10.40;57.08
29359;BME280;16347;53.232;6.556;2024-03-02T02:33:09;99940.22;;;10.43;56.61
29359;BME280;16347;53.232;6.556;2024-03-02T02:35:37;99934.25;;;10.47;56.37
29359;BME280;16347;53.232;6.556;2024-03-02T02:38:04;99943.41;;;10.46;56.59
29359;BME280;16347;53.232;6.556;2024-03-02T02:40:34;99923.38;;;10.47;56.05
29359;BME280;16347;53.232;6.556;2024-03-02T02:43:01;99934.28;;;10.39;56.78
29359;BME280;16347;53.232;6.556;2024-03-02T02:45:30;99925.28;;;10.39;56.70
29359;BME280;16347;53.232;6.556;2024-03-02T02:47:57;99921.47;;;10.48;56.49
29359;BME280;16347;53.232;6.556;2024-03-02T02:50:25;99936.41;;;10.52;56.27
29359;BME280;16347;53.232;6.556;2024-03-02T02:52:53;99925.16;;;10.55;56.08
29359;BME280;16347;53.232;6.556;2024-03-02T02:55:21;99933.53;;;10.53;56.37
29359;BME280;16347;53.232;6.556;2024-03-02T02:57:50;99937.28;;;10.44;56.23
29359;BME280;16347;53.232;6.556;2024-03-02T03:00:18;99934.84;;;10.57;56.71
29359;BME280;16347;53.232;6.556;2024-03-02T03:02:48;99934.50;;;10.60;56.24
29359;BME280;16347;53.232;6.556;2024-03-02T03:05:17;99934.50;;;10.60;55.92
29359;BME280;16347;53.232;6.556;2024-03-02T03:07:45;99935.56;;;10.51;55.65
29359;BME280;16347;53.232;6.556;2024-03-02T03:10:16;99928.97;;;10.46;55.81
29359;BME280;16347;53.232;6.556;2024-03-02T03:12:45;99928.81;;;10.47;55.67
29359;BME280;16347;53.232;6.556;2024-03-02T03:15:15;99934.25;;;10.47;55.64
29359;BME280;16347;53.232;6.556;2024-03-02T03:17:44;99931.69;;;10.46;56.11
29359;BME280;16347;53.232;6.556;2024-03-02T03:20:13;99937.09;;;10.54;56.16
29359;BME280;16347;53.232;6.556;2024-03-02T03:22:42;99940.09;;;10.36;55.91
29359;BME280;16347;53.232;6.556;2024-03-02T03:25:10;99937.25;;;10.29;56.64
29359;BME280;16347;53.232;6.556;2024-03-02T03:27:39;99933.88;;;10.50;56.39
29359;BME280;16347;53.232;6.556;2024-03-02T03:30:09;99931.44;;;10.33;56.45
29359;BME280;16347;53.232;6.556;2024-03-02T03:32:38;99934.06;;;10.49;55.73
29359;BME280;16347;53.232;6.556;2024-03-02T03:35:07;99919.59;;;10.25;56.19
29359;BME280;16347;53.232;6.556;2024-03-02T03:37:35;99931.22;;;10.42;56.18
29359;BME280;16347;53.232;6.556;2024-03-02T03:40:03;99931.56;;;10.39;56.17
29359;BME280;16347;53.232;6.556;2024-03-02T03:42:36;99933.31;;;10.32;56.22
29359;BME280;16347;53.232;6.556;2024-03-02T03:45:05;99925.13;;;10.40;56.88
29359;BME280;16347;53.232;6.556;2024-03-02T03:47:33;99935.78;;;10.42;56.52
29359;BME280;16347;53.232;6.556;2024-03-02T03:50:03;99922.97;;;10.27;56.54
29359;BME280;16347;53.232;6.556;2024-03-02T03:52:33;99927.75;;;10.25;56.74
29359;BME280;16347;53.232;6.556;2024-03-02T03:55:01;99924.44;;;10.38;56.64
29359;BME280;16347;53.232;6.556;2024-03-02T03:57:29;99921.06;;;10.36;56.78
29359;BME280;16347;53.232;6.556;2024-03-02T03:59:57;99927.00;;;10.40;57.02
29359;BME280;16347;53.232;6.556;2024-03-02T04:02:25;99922.22;;;10.42;56.46
29359;BME280;16347;53.232;6.556;2024-03-02T04:04:53;99915.28;;;10.39;56.78
29359;BME280;16347;53.232;6.556;2024-03-02T04:07:22;99925.13;;;10.40;56.79
29359;BME280;16347;53.232;6.556;2024-03-02T04:09:49;99932.72;;;10.45;56.75
29359;BME280;16347;53.232;6.556;2024-03-02T04:12:17;99930.97;;;10.52;56.47
29359;BME280;16347;53.232;6.556;2024-03-02T04:14:45;99931.44;;;10.55;56.58
29359;BME280;16347;53.232;6.556;2024-03-02T04:17:13;99929.06;;;10.60;56.49
29359;BME280;16347;53.232;6.556;2024-03-02T04:19:41;99931.69;;;10.46;56.34
29359;BME280;16347;53.232;6.556;2024-03-02T04:22:08;99946.06;;;10.54;56.21
29359;BME280;16347;53.232;6.556;2024-03-02T04:24:48;99939.69;;;10.47;56.50
29359;BME280;16347;53.232;6.556;2024-03-02T04:27:16;99943.28;;;10.40;56.53
29359;BME280;16347;53.232;6.556;2024-03-02T04:29:44;99945.78;;;10.18;57.16
29359;BME280;16347;53.232;6.556;2024-03-02T04:32:12;99940.47;;;10.25;57.73
29359;BME280;16347;53.232;6.556;2024-03-02T04:34:39;99939.09;;;10.29;57.63
29359;BME280;16347;53.232;6.556;2024-03-02T04:37:08;99947.22;;;10.37;57.17
29359;BME280;16347;53.232;6.556;2024-03-02T04:39:35;99948.03;;;10.38;57.07
29359;BME280;16347;53.232;6.556;2024-03-02T04:42:05;99943.59;;;10.45;57.25
29359;BME280;16347;53.232;6.556;2024-03-02T04:44:33;99953.94;;;10.49;56.57
29359;BME280;16347;53.232;6.556;2024-03-02T04:47:01;99952.72;;;10.52;57.08
29359;BME280;16347;53.232;6.556;2024-03-02T04:49:29;99953.19;;;10.55;56.55
29359;BME280;16347;53.232;6.556;2024-03-02T04:51:57;99958.50;;;10.49;56.63
29359;BME280;16347;53.232;6.556;2024-03-02T04:54:25;99963.81;;;10.42;56.75
29359;BME280;16347;53.232;6.556;2024-03-02T04:56:53;99967.81;;;10.54;57.09
29359;BME280;16347;53.232;6.556;2024-03-02T04:59:22;99965.53;;;10.66;56.86
29359;BME280;16347;53.232;6.556;2024-03-02T05:01:49;99966.78;;;10.55;56.55
29359;BME280;16347;53.232;6.556;2024-03-02T05:04:17;99962.03;;;10.57;56.82
29359;BME280;16347;53.232;6.556;2024-03-02T05:06:45;99954.28;;;10.69;56.84
29359;BME280;16347;53.232;6.556;2024-03-02T05:09:19;99960.25;;;10.64;56.45
29359;BME280;16347;53.232;6.556;2024-03-02T05:11:47;99973.44;;;10.53;56.70
29359;BME280;16347;53.232;6.556;2024-03-02T05:14:37;99980.22;;;10.57;56.42
29359;BME280;16347;53.232;6.556;2024-03-02T05:17:06;99983.94;;;10.56;56.90
29359;BME280;16347;53.232;6.556;2024-03-02T05:19:34;99981.34;;;10.62;56.61
29359;BME280;16347;53.232;6.556;2024-03-02T05:22:02;99982.81;;;10.73;56.42
29359;BME280;16347;53.232;6.556;2024-03-02T05:24:30;99995.41;;;10.74;56.46
29359;BME280;16347;53.232;6.556;2024-03-02T05:26:58;99998.00;;;10.67;56.17
29359;BME280;16347;53.232;6.556;2024-03-02T05:29:26;100001.03;;;10.64;56.56
29359;BME280;16347;53.232;6.556;2024-03-02T05:31:55;99992.97;;;10.56;56.94
29359;BME280;16347;53.232;6.556;2024-03-02T05:34:23;99997.72;;;10.54;57.17
29359;BME280;16347;53.232;6.556;2024-03-02T05:36:51;100005.81;;;10.32;57.42
29359;BME280;16347;53.232;6.556;2024-03-02T05:39:19;100001.06;;;10.34;57.75
29359;BME280;16347;53.232;6.556;2024-03-02T05:41:48;100004.16;;;10.31;57.54
29359;BME280;16347;53.232;6.556;2024-03-02T05:44:16;100015.28;;;10.44;57.96
29359;BME280;16347;53.232;6.556;2024-03-02T05:46:45;100007.78;;;10.46;57.65
29359;BME280;16347;53.232;6.556;2024-03-02T05:49:14;100011.00;;;10.49;57.58
29359;BME280;16347;53.232;6.556;2024-03-02T05:51:42;100009.78;;;10.52;57.77
29359;BME280;16347;53.232;6.556;2024-03-02T05:54:10;100022.59;;;10.43;57.68
29359;BME280;16347;53.232;6.556;2024-03-02T05:56:37;100015.97;;;10.38;57.84
29359;BME280;16347;53.232;6.556;2024-03-02T05:59:05;100021.09;;;10.41;58.06
29359;BME280;16347;53.232;6.556;2024-03-02T06:01:39;100023.75;;;10.49;57.63
29359;BME280;16347;53.232;6.556;2024-03-02T06:04:07;100024.47;;;10.43;57.70
29359;BME280;16347;53.232;6.556;2024-03-02T06:06:37;100032.03;;;10.55;57.73
29359;BME280;16347;53.232;6.556;2024-03-02T06:09:06;100035.97;;;10.53;58.06
29359;BME280;16347;53.232;6.556;2024-03-02T06:11:35;100033.94;;;10.47;57.42
29359;BME280;16347;53.232;6.556;2024-03-02T06:14:03;100038.97;;;10.58;57.77
29359;BME280;16347;53.232;6.556;2024-03-02T06:16:31;100043.84;;;10.70;57.29
29359;BME280;16347;53.232;6.556;2024-03-02T06:19:00;100047.44;;;10.63;57.55
29359;BME280;16347;53.232;6.556;2024-03-02T06:21:28;100054.94;;;10.61;57.75
29359;BME280;16347;53.232;6.556;2024-03-02T06:23:58;100062.41;;;10.59;57.62
29359;BME280;16347;53.232;6.556;2024-03-02T06:26:26;100055.91;;;10.68;57.51
29359;BME280;16347;53.232;6.556;2024-03-02T06:28:55;100067.28;;;10.71;57.68
29359;BME280;16347;53.232;6.556;2024-03-02T06:31:23;100071.88;;;10.71;57.68
29359;BME280;16347;53.232;6.556;2024-03-02T06:33:52;100068.38;;;10.54;57.31
29359;BME280;16347;53.232;6.556;2024-03-02T06:36:19;100074.63;;;10.63;57.80
29359;BME280;16347;53.232;6.556;2024-03-02T06:38:47;100079.66;;;10.43;57.77
29359;BME280;16347;53.232;6.556;2024-03-02T06:41:17;100087.09;;;10.49;58.19
29359;BME280;16347;53.232;6.556;2024-03-02T06:43:45;100090.69;;;10.42;58.51
29359;BME280;16347;53.232;6.556;2024-03-02T06:46:14;100079.31;;;10.46;58.38
29359;BME280;16347;53.232;6.556;2024-03-02T06:48:41;100092.84;;;10.54;57.89
29359;BME280;16347;53.232;6.556;2024-03-02T06:51:10;100088.81;;;10.50;57.95
29359;BME280;16347;53.232;6.556;2024-03-02T06:53:38;100094.53;;;10.55;58.15
29359;BME280;16347;53.232;6.556;2024-03-02T06:56:07;100099.47;;;10.52;57.73
29359;BME280;16347;53.232;6.556;2024-03-02T06:58:37;100100.34;;;10.44;57.88
29359;BME280;16347;53.232;6.556;2024-03-02T07:01:05;100101.06;;;10.38;58.29
29359;BME280;16347;53.232;6.556;2024-03-02T07:03:33;100101.91;;;10.39;58.39
29359;BME280;16347;53.232;6.556;2024-03-02T07:06:01;100104.84;;;10.37;58.18
29359;BME280;16347;53.232;6.556;2024-03-02T07:08:29;100106.34;;;10.32;58.15
29359;BME280;16347;53.232;6.556;2024-03-02T07:10:57;100111.09;;;10.38;58.55
29359;BME280;16347;53.232;6.556;2024-03-02T07:13:25;100113.63;;;10.39;58.40
29359;BME280;16347;53.232;6.556;2024-03-02T07:15:55;100103.25;;;10.51;58.67
29359;BME280;16347;53.232;6.556;2024-03-02T07:18:54;100115.50;;;10.47;58.57
29359;BME280;16347;53.232;6.556;2024-03-02T07:21:23;100118.66;;;10.58;58.14
29359;BME280;16347;53.232;6.556;2024-03-02T07:23:51;100131.25;;;10.51;58.50
29359;BME280;16347;53.232;6.556;2024-03-02T07:26:19;100131.09;;;10.45;58.72
29359;BME280;16347;53.232;6.556;2024-03-02T07:28:50;100128.88;;;10.56;58.60
29359;BME280;16347;53.232;6.556;2024-03-02T07:31:20;100137.88;;;10.57;58.00
29359;BME280;16347;53.232;6.556;2024-03-02T07:33:48;100135.00;;;10.50;58.67
29359;BME280;16347;53.232;6.556;2024-03-02T07:36:16;100137.88;;;10.57;58.67
29359;BME280;16347;53.232;6.556;2024-03-02T07:38:44;100154.53;;;10.54;58.60
29359;BME280;16347;53.232;6.556;2024-03-02T07:41:12;100143.47;;;10.55;58.32
29359;BME280;16347;53.232;6.556;2024-03-02T07:43:40;100146.34;;;10.62;58.75
29359;BME280;16347;53.232;6.556;2024-03-02T07:46:08;100148.03;;;10.63;58.61
29359;BME280;16347;53.232;6.556;2024-03-02T07:48:37;100149.41;;;10.59;58.37
29359;BME280;16347;53.232;6.556;2024-03-02T07:51:05;100150.03;;;10.69;58.43
29359;BME280;16347;53.232;6.556;2024-03-02T07:53:33;100151.69;;;10.78;58.04
29359;BME280;16347;53.232;6.556;2024-03-02T07:56:03;100155.97;;;10.80;58.12
29359;BME280;16347;53.232;6.556;2024-03-02T07:58:32;100160.16;;;10.91;58.02
29359;BME280;16347;53.232;6.556;2024-03-02T08:01:01;100164.03;;;10.97;57.75
29359;BME280;16347;53.232;6.556;2024-03-02T08:03:30;100165.53;;;10.99;57.78
29359;BME280;16347;53.232;6.556;2024-03-02T08:06:00;100164.75;;;10.91;56.96
29359;BME280;16347;53.232;6.556;2024-03-02T08:08:28;100169.41;;;10.74;57.81
29359;BME280;16347;53.232;6.556;2024-03-02T08:10:56;100165.56;;;10.60;57.61
29359;BME280;16347;53.232;6.556;2024-03-02T08:13:27;100166.06;;;10.64;57.79
29359;BME280;16347;53.232;6.556;2024-03-02T08:15:55;100160.06;;;10.68;57.86
29359;BME280;16347;53.232;6.556;2024-03-02T08:18:23;100163.84;;;10.67;58.11
29359;BME280;16347;53.232;6.556;2024-03-02T08:20:52;100166.06;;;10.64;57.80
29359;BME280;16347;53.232;6.556;2024-03-02T08:23:21;100182.72;;;10.61;58.19
29359;BME280;16347;53.232;6.556;2024-03-02T08:25:50;100186.13;;;10.55;58.17
29359;BME280;16347;53.232;6.556;2024-03-02T08:28:18;100189.34;;;10.58;58.35
29359;BME280;16347;53.232;6.556;2024-03-02T08:30:46;100182.16;;;10.65;58.48
29359;BME280;16347;53.232;6.556;2024-03-02T08:33:15;100204.13;;;10.64;58.23
29359;BME280;16347;53.232;6.556;2024-03-02T08:35:43;100196.31;;;10.61;57.85
29359;BME280;16347;53.232;6.556;2024-03-02T08:38:12;100197.31;;;10.60;57.91
29359;BME280;16347;53.232;6.556;2024-03-02T08:40:41;100207.19;;;10.53;58.27
29359;BME280;16347;53.232;6.556;2024-03-02T08:43:09;100209.72;;;10.62;58.38
29359;BME280;16347;53.232;6.556;2024-03-02T08:45:38;100205.63;;;10.66;58.83
29359;BME280;16347;53.232;6.556;2024-03-02T08:48:07;100210.88;;;10.68;57.93
29359;BME280;16347;53.232;6.556;2024-03-02T08:50:36;100208.50;;;10.65;58.32
29359;BME280;16347;53.232;6.556;2024-03-02T08:53:05;100215.81;;;10.72;57.72
29359;BME280;16347;53.232;6.556;2024-03-02T08:55:33;100214.94;;;10.72;58.24
29359;BME280;16347;53.232;6.556;2024-03-02T08:58:02;100214.81;;;10.65;58.02
29359;BME280;16347;53.232;6.556;2024-03-02T09:00:31;100216.63;;;10.81;57.93
29359;BME280;16347;53.232;6.556;2024-03-02T09:02:59;100218.66;;;10.79;57.53
29359;BME280;16347;53.232;6.556;2024-03-02T09:05:27;100227.31;;;10.82;57.48
29359;BME280;16347;53.232;6.556;2024-03-02T09:07:56;100229.19;;;10.82;57.42
29359;BME280;16347;53.232;6.556;2024-03-02T09:10:24;100216.31;;;10.68;56.85
29359;BME280;16347;53.232;6.556;2024-03-02T09:12:54;100212.63;;;10.61;57.23
29359;BME280;16347;53.232;6.556;2024-03-02T09:15:24;100215.13;;;10.70;57.96
29359;BME280;16347;53.232;6.556;2024-03-02T09:17:52;100228.59;;;10.56;57.36
29359;BME280;16347;53.232;6.556;2024-03-02T09:20:20;100218.38;;;10.58;57.29
29359;BME280;16347;53.232;6.556;2024-03-02T09:22:48;100219.53;;;10.71;57.06
29359;BME280;16347;53.232;6.556;2024-03-02T09:25:16;100213.59;;;10.68;56.72
29359;BME280;16347;53.232;6.556;2024-03-02T09:27:44;100222.16;;;10.57;56.93
29359;BME280;16347;53.232;6.556;2024-03-02T09:30:13;100221.50;;;10.47;57.38
29359;BME280;16347;53.232;6.556;2024-03-02T09:32:43;100217.41;;;10.35;57.04
29359;BME280;16347;53.232;6.556;2024-03-02T09:35:12;100217.72;;;10.56;57.36
29359;BME280;16347;53.232;6.556;2024-03-02T09:37:41;100221.44;;;10.55;57.67
29359;BME280;16347;53.232;6.556;2024-03-02T09:40:10;100221.44;;;10.71;58.31
29359;BME280;16347;53.232;6.556;2024-03-02T09:42:38;100218.50;;;10.80;57.30
29359;BME280;16347;53.232;6.556;2024-03-02T09:45:07;100218.44;;;10.97;57.15
29359;BME280;16347;53.232;6.556;2024-03-02T09:47:35;100224.88;;;11.04;56.50
29359;BME280;16347;53.232;6.556;2024-03-02T09:50:05;100221.78;;;11.07;55.92
29359;BME280;16347;53.232;6.556;2024-03-02T09:52:35;100224.38;;;11.00;55.76
29359;BME280;16347;53.232;6.556;2024-03-02T09:55:04;100217.09;;;10.93;56.30
29359;BME280;16347;53.232;6.556;2024-03-02T09:57:33;100219.09;;;10.99;56.25
29359;BME280;16347;53.232;6.556;2024-03-02T10:00:03;100217.00;;;11.09;55.08
29359;BME280;16347;53.232;6.556;2024-03-02T10:02:31;100224.66;;;11.05;54.81
29359;BME280;16347;53.232;6.556;2024-03-02T10:04:59;100226.34;;;11.14;54.72
29359;BME280;16347;53.232;6.556;2024-03-02T10:07:32;100216.47;;;11.13;55.22
29359;BME280;16347;53.232;6.556;2024-03-02T10:10:12;100227.50;;;11.20;54.60
29359;BME280;16347;53.232;6.556;2024-03-02T10:12:41;100228.72;;;11.17;54.38
29359;BME280;16347;53.232;6.556;2024-03-02T10:15:10;100231.41;;;10.87;54.86
29359;BME280;16347;53.232;6.556;2024-03-02T10:17:38;100223.88;;;10.97;55.07
29359;BME280;16347;53.232;6.556;2024-03-02T10:20:22;100226.63;;;10.89;56.39
29359;BME280;16347;53.232;6.556;2024-03-02T10:22:52;100218.72;;;11.10;56.11
29359;BME280;16347;53.232;6.556;2024-03-02T10:25:30;100216.53;;;11.36;55.34
29359;BME280;16347;53.232;6.556;2024-03-02T10:28:02;100222.78;;;11.45;54.87
29359;BME280;16347;53.232;6.556;2024-03-02T10:30:33;100211.53;;;11.48;54.35
29359;BME280;16347;53.232;6.556;2024-03-02T10:33:01;100222.50;;;11.31;54.60
29359;BME280;16347;53.232;6.556;2024-03-02T10:35:30;100219.34;;;11.51;54.56
29359;BME280;16347;53.232;6.556;2024-03-02T10:38:00;100207.19;;;11.61;54.28
29359;BME280;16347;53.232;6.556;2024-03-02T10:40:30;100206.13;;;11.70;54.00
29359;BME280;16347;53.232;6.556;2024-03-02T10:43:01;100208.97;;;11.77;53.74
29359;BME280;16347;53.232;6.556;2024-03-02T10:45:32;100204.00;;;11.80;53.02
29359;BME280;16347;53.232;6.556;2024-03-02T10:48:01;100202.00;;;11.74;53.34
29359;BME280;16347;53.232;6.556;2024-03-02T10:50:32;100213.06;;;11.73;53.04
29359;BME280;16347;53.232;6.556;2024-03-02T10:53:02;100210.84;;;11.68;52.81
29359;BME280;16347;53.232;6.556;2024-03-02T10:55:32;100208.78;;;11.78;51.88
29359;BME280;16347;53.232;6.556;2024-03-02T10:58:04;100212.53;;;11.77;53.32
29359;BME280;16347;53.232;6.556;2024-03-02T11:00:34;100214.78;;;11.74;52.18
29359;BME280;16347;53.232;6.556;2024-03-02T11:03:05;100211.16;;;11.81;52.66
29359;BME280;16347;53.232;6.556;2024-03-02T11:05:37;100217.34;;;11.67;52.19
29359;BME280;16347;53.232;6.556;2024-03-02T11:08:08;100216.81;;;11.72;52.53
29359;BME280;16347;53.232;6.556;2024-03-02T11:10:44;100223.59;;;11.76;52.39
29359;BME280;16347;53.232;6.556;2024-03-02T11:13:14;100214.22;;;11.78;51.83
29359;BME280;16347;53.232;6.556;2024-03-02T11:15:44;100217.53;;;11.89;51.65
29359;BME280;16347;53.232;6.556;2024-03-02T11:18:12;100210.22;;;11.89;51.96
29359;BME280;16347;53.232;6.556;2024-03-02T11:20:42;100210.81;;;11.99;51.80
29359;BME280;16347;53.232;6.556;2024-03-02T11:23:12;100210.03;;;12.13;51.72
29359;BME280;16347;53.232;6.556;2024-03-02T11:25:40;100210.53;;;12.31;51.48
29359;BME280;16347;53.232;6.556;2024-03-02T11:28:08;100202.63;;;12.22;50.86
29359;BME280;16347;53.232;6.556;2024-03-02T11:30:50;100212.63;;;12.07;49.98
29359;BME280;16347;53.232;6.556;2024-03-02T11:33:26;100203.53;;;12.14;50.55
29359;BME280;16347;53.232;6.556;2024-03-02T11:35:57;100211.63;;;12.22;50.35
29359;BME280;16347;53.232;6.556;2024-03-02T11:38:30;100204.41;;;12.29;50.19
29359;BME280;16347;53.232;6.556;2024-03-02T11:41:00;100193.28;;;12.16;50.43
29359;BME280;16347;53.232;6.556;2024-03-02T11:43:29;100208.63;;;12.17;50.47
29359;BME280;16347;53.232;6.556;2024-03-02T11:45:57;100205.47;;;12.28;50.46
29359;BME280;16347;53.232;6.556;2024-03-02T11:48:26;100190.59;;;12.46;50.27
29359;BME280;16347;53.232;6.556;2024-03-02T11:50:57;100195.72;;;12.49;49.66
29359;BME280;16347;53.232;6.556;2024-03-02T11:53:27;100195.78;;;12.70;49.54
29359;BME280;16347;53.232;6.556;2024-03-02T11:55:59;100187.31;;;12.79;49.29
29359;BME280;16347;53.232;6.556;2024-03-02T11:58:28;100191.06;;;12.93;48.02
29359;BME280;16347;53.232;6.556;2024-03-02T12:00:56;100187.16;;;12.96;47.14
29359;BME280;16347;53.232;6.556;2024-03-02T12:03:25;100184.88;;;12.84;46.45
29359;BME280;16347;53.232;6.556;2024-03-02T12:05:55;100178.75;;;12.97;46.78
29359;BME280;16347;53.232;6.556;2024-03-02T12:08:22;100180.72;;;13.03;46.08
29359;BME280;16347;53.232;6.556;2024-03-02T12:10:57;100193.06;;;12.99;46.72
29359;BME280;16347;53.232;6.556;2024-03-02T12:13:26;100192.31;;;12.76;44.93
29359;BME280;16347;53.232;6.556;2024-03-02T12:15:54;100183.69;;;12.72;45.83
29359;BME280;16347;53.232;6.556;2024-03-02T12:18:23;100184.03;;;12.84;46.75
29359;BME280;16347;53.232;6.556;2024-03-02T12:20:51;100188.19;;;13.09;46.13
29359;BME280;16347;53.232;6.556;2024-03-02T12:23:23;100192.88;;;13.15;46.03
29359;BME280;16347;53.232;6.556;2024-03-02T12:25:51;100183.63;;;13.16;45.78
29359;BME280;16347;53.232;6.556;2024-03-02T12:28:19;100183.16;;;13.13;46.22
29359;BME280;16347;53.232;6.556;2024-03-02T12:30:48;100181.84;;;13.23;45.66
29359;BME280;16347;53.232;6.556;2024-03-02T12:33:16;100188.56;;;13.42;45.11
29359;BME280;16347;53.232;6.556;2024-03-02T12:35:45;100194.53;;;13.31;45.26
29359;BME280;16347;53.232;6.556;2024-03-02T12:38:13;100194.81;;;13.36;45.67
29359;BME280;16347;53.232;6.556;2024-03-02T12:40:41;100181.09;;;13.51;45.71
29359;BME280;16347;53.232;6.556;2024-03-02T12:43:10;100195.94;;;13.63;45.92
29359;BME280;16347;53.232;6.556;2024-03-02T12:45:37;100192.41;;;13.48;45.70
29359;BME280;16347;53.232;6.556;2024-03-02T12:48:07;100186.44;;;13.59;46.08
29359;BME280;16347;53.232;6.556;2024-03-02T12:50:34;100191.97;;;13.65;45.27
29359;BME280;16347;53.232;6.556;2024-03-02T12:53:02;100195.94;;;13.63;45.50
29359;BME280;16347;53.232;6.556;2024-03-02T12:55:30;100193.41;;;13.82;46.04
29359;BME280;16347;53.232;6.556;2024-03-02T12:57:58;100187.94;;;13.82;45.40
29359;BME280;16347;53.232;6.556;2024-03-02T13:00:29;100195.66;;;14.00;45.26
29359;BME280;16347;53.232;6.556;2024-03-02T13:03:01;100184.72;;;14.21;45.64